sensor_id;sensor_type;location;lat;lon;timestamp;pressure;altitude;pressure_sealevel;temperature;humidity
76046;BME280;64741;41.730;44.788;2023-04-07T00:01:36;986.6;;;23.6;41.7
76046;BME280;64741;41.730;44.788;2023-04-07T00:06:36;986.6;;;23.6;41.8
76046;BME280;64741;41.730;44.788;2023-04-07T00:11:34;986.6;;;23.6;41.7
76046;BME280;64741;41.730;44.788;2023-04-07T00:16:42;986.6;;;23.6;41.6
76046;BME280;64741;41.730;44.788;2023-04-07T00:21:34;986.6;;;23.6;41.6
76046;BME280;64741;41.730;44.788;2023-04-07T00:26:36;986.7;;;23.6;41.5
76046;BME280;64741;41.730;44.788;2023-04-07T00:31:36;986.6;;;23.5;41.5
76046;BME280;64741;41.730;44.788;2023-04-07T00:36:12;986.6;;;23.5;41.5
76046;BME280;64741;41.730;44.788;2023-04-07T00:41:42;986.7;;;23.5;41.5
76046;BME280;64741;41.730;44.788;2023-04-07T00:46:34;986.8;;;23.5;41.6
76046;BME280;64741;41.730;44.788;2023-04-07T00:51:42;986.9;;;23.5;41.6
76046;BME280;64741;41.730;44.788;2023-04-07T00:56:34;987;;;23.5;41.6
76046;BME280;64741;41.730;44.788;2023-04-07T01:01:43;987;;;23.5;41.7
76046;BME280;64741;41.730;44.788;2023-04-07T01:06:37;986.9;;;23.5;41.6
76046;BME280;64741;41.730;44.788;2023-04-07T01:11:38;987;;;23.5;41.6
76046;BME280;64741;41.730;44.788;2023-04-07T01:16:44;986.9;;;23.5;41.6
76046;BME280;64741;41.730;44.788;2023-04-07T01:21:32;986.9;;;23.5;41.6
76046;BME280;64741;41.730;44.788;2023-04-07T01:26:40;986.9;;;23.5;41.5
76046;BME280;64741;41.730;44.788;2023-04-07T01:31:36;987;;;23.5;41.5
76046;BME280;64741;41.730;44.788;2023-04-07T01:36:36;987;;;23.5;41.4
76046;BME280;64741;41.730;44.788;2023-04-07T01:41:42;987;;;23.4;41.4
76046;BME280;64741;41.730;44.788;2023-04-07T01:46:34;987;;;23.4;41.3
76046;BME280;64741;41.730;44.788;2023-04-07T01:51:42;987;;;23.4;41.4
76046;BME280;64741;41.730;44.788;2023-04-07T01:56:36;987;;;23.4;41.4
76046;BME280;64741;41.730;44.788;2023-04-07T02:01:36;987;;;23.4;41.3
76046;BME280;64741;41.730;44.788;2023-04-07T02:06:41;987.1;;;23.4;41.4
76046;BME280;64741;41.730;44.788;2023-04-07T02:11:34;987.1;;;23.4;41.3
76046;BME280;64741;41.730;44.788;2023-04-07T02:16:40;987.1;;;23.4;41.3
76046;BME280;64741;41.730;44.788;2023-04-07T02:21:36;987.2;;;23.4;41.3
76046;BME280;64741;41.730;44.788;2023-04-07T02:26:36;987.3;;;23.4;41.2
76046;BME280;64741;41.730;44.788;2023-04-07T02:31:42;987.5;;;23.4;41.2
76046;BME280;64741;41.730;44.788;2023-04-07T02:36:34;987.5;;;23.4;41.3
76046;BME280;64741;41.730;44.788;2023-04-07T02:41:40;987.6;;;23.4;41.3
76046;BME280;64741;41.730;44.788;2023-04-07T02:46:36;987.6;;;23.4;41.3
76046;BME280;64741;41.730;44.788;2023-04-07T02:51:36;987.6;;;23.4;41.4
76046;BME280;64741;41.730;44.788;2023-04-07T02:56:42;987.7;;;23.4;41.4
76046;BME280;64741;41.730;44.788;2023-04-07T03:01:26;987.8;;;23.4;41.4
76046;BME280;64741;41.730;44.788;2023-04-07T03:06:38;987.8;;;23.4;41.4
76046;BME280;64741;41.730;44.788;2023-04-07T03:11:36;987.8;;;23.4;41.4
76046;BME280;64741;41.730;44.788;2023-04-07T03:16:36;987.9;;;23.4;41.4
76046;BME280;64741;41.730;44.788;2023-04-07T03:21:42;987.9;;;23.4;41.4
76046;BME280;64741;41.730;44.788;2023-04-07T03:26:32;988;;;23.4;41.4
76046;BME280;64741;41.730;44.788;2023-04-07T03:31:42;988;;;23.4;41.4
76046;BME280;64741;41.730;44.788;2023-04-07T03:36:24;988.1;;;23.4;41.3
76046;BME280;64741;41.730;44.788;2023-04-07T03:41:36;988.1;;;23.4;41.3
76046;BME280;64741;41.730;44.788;2023-04-07T03:46:40;988.2;;;23.3;41.2
76046;BME280;64741;41.730;44.788;2023-04-07T03:51:34;988.1;;;23.3;41.2
76046;BME280;64741;41.730;44.788;2023-04-07T03:56:42;988.2;;;23.3;41.2
76046;BME280;64741;41.730;44.788;2023-04-07T04:01:36;988.3;;;23.3;41.2
76046;BME280;64741;41.730;44.788;2023-04-07T04:06:36;988.3;;;23.3;41.3
76046;BME280;64741;41.730;44.788;2023-04-07T04:11:42;988.3;;;23.3;41.3
76046;BME280;64741;41.730;44.788;2023-04-07T04:16:34;988.4;;;23.3;41.4
76046;BME280;64741;41.730;44.788;2023-04-07T04:21:42;988.4;;;23.3;41.4
76046;BME280;64741;41.730;44.788;2023-04-07T04:26:36;988.4;;;23.3;41.4
76046;BME280;64741;41.730;44.788;2023-04-07T04:31:36;988.4;;;23.3;41.4
76046;BME280;64741;41.730;44.788;2023-04-07T04:36:42;988.4;;;23.3;41.3
76046;BME280;64741;41.730;44.788;2023-04-07T04:41:34;988.4;;;23.3;41.3
76046;BME280;64741;41.730;44.788;2023-04-07T04:46:28;988.5;;;23.3;41.3
76046;BME280;64741;41.730;44.788;2023-04-07T04:51:36;988.4;;;23.3;41.3
76046;BME280;64741;41.730;44.788;2023-04-07T04:56:34;988.4;;;23.3;41.3
76046;BME280;64741;41.730;44.788;2023-04-07T05:01:40;988.4;;;23.3;41.3
76046;BME280;64741;41.730;44.788;2023-04-07T05:06:32;988.5;;;23.3;41.3
76046;BME280;64741;41.730;44.788;2023-04-07T05:11:39;988.5;;;23.3;41.4
76046;BME280;64741;41.730;44.788;2023-04-07T05:16:36;988.6;;;23.3;41.5
76046;BME280;64741;41.730;44.788;2023-04-07T05:21:36;988.6;;;23.3;41.5
76046;BME280;64741;41.730;44.788;2023-04-07T05:26:38;988.7;;;23.2;41.6
76046;BME280;64741;41.730;44.788;2023-04-07T05:31:32;988.7;;;23.2;41.6
76046;BME280;64741;41.730;44.788;2023-04-07T05:36:40;988.7;;;23.2;41.6
76046;BME280;64741;41.730;44.788;2023-04-07T05:41:36;988.7;;;23.2;41.6
76046;BME280;64741;41.730;44.788;2023-04-07T05:46:36;988.7;;;23.3;41.5
76046;BME280;64741;41.730;44.788;2023-04-07T05:51:40;988.8;;;23.3;41.5
76046;BME280;64741;41.730;44.788;2023-04-07T05:56:34;988.8;;;23.3;41.5
76046;BME280;64741;41.730;44.788;2023-04-07T06:01:42;988.7;;;23.3;41.5
76046;BME280;64741;41.730;44.788;2023-04-07T06:06:36;988.8;;;23.3;41.5
76046;BME280;64741;41.730;44.788;2023-04-07T06:11:34;988.8;;;23.3;41.5
76046;BME280;64741;41.730;44.788;2023-04-07T06:16:40;988.9;;;23.3;41.6
76046;BME280;64741;41.730;44.788;2023-04-07T06:21:32;988.8;;;23.3;41.7
76046;BME280;64741;41.730;44.788;2023-04-07T06:26:40;988.8;;;23.3;41.8
76046;BME280;64741;41.730;44.788;2023-04-07T06:31:02;988.8;;;23.3;41.8
76046;BME280;64741;41.730;44.788;2023-04-07T06:36:28;988.8;;;23.3;41.8
76046;BME280;64741;41.730;44.788;2023-04-07T06:41:40;988.8;;;23.3;41.8
76046;BME280;64741;41.730;44.788;2023-04-07T06:46:32;988.8;;;23.3;41.7
76046;BME280;64741;41.730;44.788;2023-04-07T06:51:42;988.8;;;23.3;41.7
76046;BME280;64741;41.730;44.788;2023-04-07T06:56:36;988.8;;;23.3;41.7
76046;BME280;64741;41.730;44.788;2023-04-07T07:01:34;988.8;;;23.3;41.7
76046;BME280;64741;41.730;44.788;2023-04-07T07:06:40;988.6;;;23.3;41.8
76046;BME280;64741;41.730;44.788;2023-04-07T07:11:32;988.5;;;23.3;41.7
76046;BME280;64741;41.730;44.788;2023-04-07T07:16:26;988.5;;;23.3;41.8
76046;BME280;64741;41.730;44.788;2023-04-07T07:21:34;988.5;;;23.4;41.8
76046;BME280;64741;41.730;44.788;2023-04-07T07:26:36;988.5;;;23.4;42
76046;BME280;64741;41.730;44.788;2023-04-07T07:31:42;988.4;;;23.4;42.2
76046;BME280;64741;41.730;44.788;2023-04-07T07:36:34;988.4;;;23.4;42.8
76046;BME280;64741;41.730;44.788;2023-04-07T07:41:42;988.4;;;23.5;42.8
76046;BME280;64741;41.730;44.788;2023-04-07T07:46:36;988.4;;;23.5;43
76046;BME280;64741;41.730;44.788;2023-04-07T07:51:34;988.3;;;23.5;43.4
76046;BME280;64741;41.730;44.788;2023-04-07T07:56:38;988.2;;;23.6;44
76046;BME280;64741;41.730;44.788;2023-04-07T08:01:32;988.2;;;23.6;44.8
76046;BME280;64741;41.730;44.788;2023-04-07T08:06:40;988.1;;;23.6;45.2
76046;BME280;64741;41.730;44.788;2023-04-07T08:11:36;988.1;;;23.6;45
76046;BME280;64741;41.730;44.788;2023-04-07T08:16:34;988.1;;;23.6;44.8
76046;BME280;64741;41.730;44.788;2023-04-07T08:21:38;987.9;;;23.7;44.7
76046;BME280;64741;41.730;44.788;2023-04-07T08:26:30;987.9;;;23.6;44.6
76046;BME280;64741;41.730;44.788;2023-04-07T08:31:38;987.9;;;23.6;44.5
76046;BME280;64741;41.730;44.788;2023-04-07T08:36:34;987.9;;;23.6;44.4
76046;BME280;64741;41.730;44.788;2023-04-07T08:41:36;987.7;;;23.6;44.2
76046;BME280;64741;41.730;44.788;2023-04-07T08:46:40;987.6;;;23.6;44
76046;BME280;64741;41.730;44.788;2023-04-07T08:51:32;987.7;;;23.6;43.9
76046;BME280;64741;41.730;44.788;2023-04-07T08:56:40;987.7;;;23.6;43.8
76046;BME280;64741;41.730;44.788;2023-04-07T09:01:36;987.6;;;23.6;43.6
76046;BME280;64741;41.730;44.788;2023-04-07T09:06:34;987.6;;;23.6;43.5
76046;BME280;64741;41.730;44.788;2023-04-07T09:11:38;987.5;;;23.6;43.6
76046;BME280;64741;41.730;44.788;2023-04-07T09:16:32;987.5;;;23.6;43.3
76046;BME280;64741;41.730;44.788;2023-04-07T09:21:46;987.4;;;23.6;43.1
76046;BME280;64741;41.730;44.788;2023-04-07T09:26:36;987.4;;;23.6;43.1
76046;BME280;64741;41.730;44.788;2023-04-07T09:31:42;987.5;;;23.6;43.2
76046;BME280;64741;41.730;44.788;2023-04-07T09:36:40;987.6;;;23.6;43.1
76046;BME280;64741;41.730;44.788;2023-04-07T09:41:30;987.6;;;23.6;43.1
76046;BME280;64741;41.730;44.788;2023-04-07T09:46:48;987.6;;;23.6;43.1
76046;BME280;64741;41.730;44.788;2023-04-07T09:51:36;987.5;;;23.6;42.9
76046;BME280;64741;41.730;44.788;2023-04-07T09:56:34;987.5;;;23.6;42.8
76046;BME280;64741;41.730;44.788;2023-04-07T10:01:40;987.4;;;23.6;42.8
76046;BME280;64741;41.730;44.788;2023-04-07T10:06:32;987.3;;;23.6;42.9
76046;BME280;64741;41.730;44.788;2023-04-07T10:11:38;987.4;;;23.6;42.8
76046;BME280;64741;41.730;44.788;2023-04-07T10:16:36;987.3;;;23.5;42.6
76046;BME280;64741;41.730;44.788;2023-04-07T10:21:38;987.2;;;23.6;42.8
76046;BME280;64741;41.730;44.788;2023-04-07T10:26:42;987.2;;;23.6;42.7
76046;BME280;64741;41.730;44.788;2023-04-07T10:31:34;987.1;;;23.6;42.8
76046;BME280;64741;41.730;44.788;2023-04-07T10:37:06;987;;;23.6;42.6
76046;BME280;64741;41.730;44.788;2023-04-07T10:41:37;987;;;23.6;43.1
76046;BME280;64741;41.730;44.788;2023-04-07T10:47:03;986.9;;;23.6;43.6
76046;BME280;64741;41.730;44.788;2023-04-07T10:51:28;986.8;;;23.6;43.8
76046;BME280;64741;41.730;44.788;2023-04-07T10:57:03;986.8;;;23.6;44.2
76046;BME280;64741;41.730;44.788;2023-04-07T11:01:38;986.8;;;23.6;44.4
76046;BME280;64741;41.730;44.788;2023-04-07T11:06:32;986.7;;;23.6;44.7
76046;BME280;64741;41.730;44.788;2023-04-07T11:11:34;986.6;;;23.6;44.8
76046;BME280;64741;41.730;44.788;2023-04-07T11:16:39;986.6;;;23.6;45
76046;BME280;64741;41.730;44.788;2023-04-07T11:21:32;986.7;;;23.6;45.2
76046;BME280;64741;41.730;44.788;2023-04-07T11:26:40;986.7;;;23.6;45.1
76046;BME280;64741;41.730;44.788;2023-04-07T11:31:36;986.7;;;23.7;44.9
76046;BME280;64741;41.730;44.788;2023-04-07T11:36:37;986.6;;;23.7;45.3
76046;BME280;64741;41.730;44.788;2023-04-07T11:41:44;986.6;;;23.7;46.1
76046;BME280;64741;41.730;44.788;2023-04-07T11:46:32;986.6;;;23.7;46.6
76046;BME280;64741;41.730;44.788;2023-04-07T11:51:41;986.5;;;23.7;47
76046;BME280;64741;41.730;44.788;2023-04-07T11:56:44;986.6;;;23.7;47.4
76046;BME280;64741;41.730;44.788;2023-04-07T12:01:38;986.7;;;23.7;47.3
76046;BME280;64741;41.730;44.788;2023-04-07T12:06:40;986.8;;;23.7;47.1
76046;BME280;64741;41.730;44.788;2023-04-07T12:11:32;986.8;;;23.7;46.7
76046;BME280;64741;41.730;44.788;2023-04-07T12:16:38;986.7;;;23.7;46.2
76046;BME280;64741;41.730;44.788;2023-04-07T12:21:36;986.7;;;23.7;45.8
76046;BME280;64741;41.730;44.788;2023-04-07T12:26:14;986.7;;;23.7;45.5
76046;BME280;64741;41.730;44.788;2023-04-07T12:31:24;986.7;;;23.8;45
76046;BME280;64741;41.730;44.788;2023-04-07T12:36:32;986.8;;;23.7;44.8
76046;BME280;64741;41.730;44.788;2023-04-07T12:41:14;986.8;;;23.7;44.5
76046;BME280;64741;41.730;44.788;2023-04-07T12:46:37;986.6;;;23.7;44.3
76046;BME280;64741;41.730;44.788;2023-04-07T12:51:36;986.5;;;23.7;44.5
76046;BME280;64741;41.730;44.788;2023-04-07T12:56:44;986.6;;;23.7;44.6
76046;BME280;64741;41.730;44.788;2023-04-07T13:01:36;986.6;;;23.7;44.3
76046;BME280;64741;41.730;44.788;2023-04-07T13:06:46;986.7;;;23.7;44.2
76046;BME280;64741;41.730;44.788;2023-04-07T13:11:40;986.7;;;23.7;44.2
76046;BME280;64741;41.730;44.788;2023-04-07T13:16:38;986.6;;;23.7;44.3
76046;BME280;64741;41.730;44.788;2023-04-07T13:21:38;986.7;;;23.8;44.2
76046;BME280;64741;41.730;44.788;2023-04-07T13:26:36;986.7;;;23.8;44.1
76046;BME280;64741;41.730;44.788;2023-04-07T13:31:46;986.7;;;23.8;44.1
76046;BME280;64741;41.730;44.788;2023-04-07T13:36:40;986.7;;;23.8;44.1
76046;BME280;64741;41.730;44.788;2023-04-07T13:41:40;986.7;;;23.8;44
76046;BME280;64741;41.730;44.788;2023-04-07T13:46:40;986.7;;;23.8;44
76046;BME280;64741;41.730;44.788;2023-04-07T13:51:36;986.7;;;23.8;43.9
76046;BME280;64741;41.730;44.788;2023-04-07T13:56:44;986.7;;;23.8;43.7
76046;BME280;64741;41.730;44.788;2023-04-07T14:01:40;986.7;;;23.8;43.7
76046;BME280;64741;41.730;44.788;2023-04-07T14:06:38;986.7;;;23.7;43.6
76046;BME280;64741;41.730;44.788;2023-04-07T14:11:36;986.7;;;23.7;43.6
76046;BME280;64741;41.730;44.788;2023-04-07T14:16:36;986.7;;;23.7;43.6
76046;BME280;64741;41.730;44.788;2023-04-07T14:21:42;986.8;;;23.7;43.6
76046;BME280;64741;41.730;44.788;2023-04-07T14:26:41;986.8;;;23.7;43.7
76046;BME280;64741;41.730;44.788;2023-04-07T14:31:38;986.7;;;23.7;43.7
76046;BME280;64741;41.730;44.788;2023-04-07T14:36:40;986.7;;;23.7;43.7
76046;BME280;64741;41.730;44.788;2023-04-07T14:41:34;986.7;;;23.7;43.7
76046;BME280;64741;41.730;44.788;2023-04-07T14:46:44;986.8;;;23.7;43.7
76046;BME280;64741;41.730;44.788;2023-04-07T14:51:40;986.8;;;23.7;43.7
76046;BME280;64741;41.730;44.788;2023-04-07T14:56:40;986.8;;;23.7;43.8
76046;BME280;64741;41.730;44.788;2023-04-07T15:01:40;986.8;;;23.7;44
76046;BME280;64741;41.730;44.788;2023-04-07T15:06:37;986.9;;;23.7;44.2
76046;BME280;64741;41.730;44.788;2023-04-07T15:11:46;986.8;;;23.7;44.5
76046;BME280;64741;41.730;44.788;2023-04-07T15:16:40;986.9;;;23.7;44.7
76046;BME280;64741;41.730;44.788;2023-04-07T15:21:38;986.9;;;23.7;44.7
76046;BME280;64741;41.730;44.788;2023-04-07T15:26:40;986.9;;;23.7;44.7
76046;BME280;64741;41.730;44.788;2023-04-07T15:31:36;987;;;23.7;44.6
76046;BME280;64741;41.730;44.788;2023-04-07T15:36:28;987;;;23.6;44.6
76046;BME280;64741;41.730;44.788;2023-04-07T15:41:38;987;;;23.6;44.5
76046;BME280;64741;41.730;44.788;2023-04-07T15:46:40;987;;;23.6;44.6
76046;BME280;64741;41.730;44.788;2023-04-07T15:51:40;987.1;;;23.6;44.5
76046;BME280;64741;41.730;44.788;2023-04-07T15:56:36;987.3;;;23.7;44.5
76046;BME280;64741;41.730;44.788;2023-04-07T16:01:42;987.3;;;23.7;44.4
76046;BME280;64741;41.730;44.788;2023-04-07T16:06:40;987.4;;;23.7;44.3
76046;BME280;64741;41.730;44.788;2023-04-07T16:11:40;987.5;;;23.7;44.3
76046;BME280;64741;41.730;44.788;2023-04-07T16:16:38;987.7;;;23.7;44.3
76046;BME280;64741;41.730;44.788;2023-04-07T16:21:36;987.8;;;23.7;44.2
76046;BME280;64741;41.730;44.788;2023-04-07T16:26:46;987.9;;;23.7;44.2
76046;BME280;64741;41.730;44.788;2023-04-07T16:31:40;988;;;23.7;44.2
76046;BME280;64741;41.730;44.788;2023-04-07T16:36:38;988;;;23.7;44.1
76046;BME280;64741;41.730;44.788;2023-04-07T16:41:40;988.1;;;23.7;44.1
76046;BME280;64741;41.730;44.788;2023-04-07T16:46:36;988.1;;;23.7;44.1
76046;BME280;64741;41.730;44.788;2023-04-07T16:51:46;988.2;;;23.7;44.1
76046;BME280;64741;41.730;44.788;2023-04-07T16:56:34;988.3;;;23.6;44
76046;BME280;64741;41.730;44.788;2023-04-07T17:01:41;988.3;;;23.6;44
76046;BME280;64741;41.730;44.788;2023-04-07T17:06:26;988.4;;;23.6;44
76046;BME280;64741;41.730;44.788;2023-04-07T17:11:36;988.5;;;23.6;43.9
76046;BME280;64741;41.730;44.788;2023-04-07T17:16:46;988.5;;;23.6;43.9
76046;BME280;64741;41.730;44.788;2023-04-07T17:21:44;988.7;;;23.6;43.9
76046;BME280;64741;41.730;44.788;2023-04-07T17:26:36;988.7;;;23.6;43.9
76046;BME280;64741;41.730;44.788;2023-04-07T17:31:38;988.7;;;23.6;43.9
76046;BME280;64741;41.730;44.788;2023-04-07T17:36:36;988.7;;;23.6;43.9
76046;BME280;64741;41.730;44.788;2023-04-07T17:41:42;988.6;;;23.6;43.9
76046;BME280;64741;41.730;44.788;2023-04-07T17:46:34;988.6;;;23.6;44
76046;BME280;64741;41.730;44.788;2023-04-07T17:51:38;988.7;;;23.6;43.9
76046;BME280;64741;41.730;44.788;2023-04-07T17:56:38;988.8;;;23.6;43.9
76046;BME280;64741;41.730;44.788;2023-04-07T18:01:36;988.9;;;23.6;43.9
76046;BME280;64741;41.730;44.788;2023-04-07T18:06:42;989;;;23.6;43.9
76046;BME280;64741;41.730;44.788;2023-04-07T18:11:36;989.1;;;23.6;43.9
76046;BME280;64741;41.730;44.788;2023-04-07T18:16:36;989;;;23.6;44
76046;BME280;64741;41.730;44.788;2023-04-07T18:21:36;988.9;;;23.6;44
76046;BME280;64741;41.730;44.788;2023-04-07T18:26:34;988.9;;;23.6;44
76046;BME280;64741;41.730;44.788;2023-04-07T18:31:44;988.9;;;23.6;44
76046;BME280;64741;41.730;44.788;2023-04-07T18:36:38;988.9;;;23.6;44.1
76046;BME280;64741;41.730;44.788;2023-04-07T18:41:40;988.8;;;23.6;44.1
76046;BME280;64741;41.730;44.788;2023-04-07T18:46:38;988.8;;;23.6;44.1
76046;BME280;64741;41.730;44.788;2023-04-07T18:51:36;988.8;;;23.6;44.2
76046;BME280;64741;41.730;44.788;2023-04-07T18:56:44;988.7;;;23.6;44.2
76046;BME280;64741;41.730;44.788;2023-04-07T19:01:38;988.8;;;23.7;44.2
76046;BME280;64741;41.730;44.788;2023-04-07T19:06:38;988.8;;;23.7;44.1
76046;BME280;64741;41.730;44.788;2023-04-07T19:11:36;988.9;;;23.7;44.1
76046;BME280;64741;41.730;44.788;2023-04-07T19:16:36;989;;;23.7;44.1
76046;BME280;64741;41.730;44.788;2023-04-07T19:21:44;989;;;23.7;44.1
76046;BME280;64741;41.730;44.788;2023-04-07T19:26:38;989;;;23.7;44
76046;BME280;64741;41.730;44.788;2023-04-07T19:31:38;989;;;23.7;44.1
76046;BME280;64741;41.730;44.788;2023-04-07T19:36:38;989;;;23.7;44
76046;BME280;64741;41.730;44.788;2023-04-07T19:41:36;989.1;;;23.8;44
76046;BME280;64741;41.730;44.788;2023-04-07T19:46:44;989.1;;;23.7;43.9
76046;BME280;64741;41.730;44.788;2023-04-07T19:51:38;989;;;23.7;43.8
76046;BME280;64741;41.730;44.788;2023-04-07T19:56:36;989;;;23.7;43.7
76046;BME280;64741;41.730;44.788;2023-04-07T20:01:24;989;;;23.7;43.6
76046;BME280;64741;41.730;44.788;2023-04-07T20:06:36;989;;;23.7;43.5
76046;BME280;64741;41.730;44.788;2023-04-07T20:11:26;989;;;23.6;43.4
76046;BME280;64741;41.730;44.788;2023-04-07T20:16:38;989;;;23.7;43.4
76046;BME280;64741;41.730;44.788;2023-04-07T20:21:38;989.1;;;23.6;43.3
76046;BME280;64741;41.730;44.788;2023-04-07T20:26:38;989.1;;;23.6;43.3
76046;BME280;64741;41.730;44.788;2023-04-07T20:31:34;989.1;;;23.6;43.3
76046;BME280;64741;41.730;44.788;2023-04-07T20:36:42;989.2;;;23.6;43.3
76046;BME280;64741;41.730;44.788;2023-04-07T20:41:36;989.3;;;23.6;43.3
76046;BME280;64741;41.730;44.788;2023-04-07T20:46:36;989.2;;;23.6;43.3
76046;BME280;64741;41.730;44.788;2023-04-07T20:51:24;989.2;;;23.5;43.2
76046;BME280;64741;41.730;44.788;2023-04-07T20:56:36;989;;;23.5;43.2
76046;BME280;64741;41.730;44.788;2023-04-07T21:01:44;989;;;23.5;43.2
76046;BME280;64741;41.730;44.788;2023-04-07T21:06:24;988.9;;;23.5;43.2
76046;BME280;64741;41.730;44.788;2023-04-07T21:11:38;988.8;;;23.5;43.2
76046;BME280;64741;41.730;44.788;2023-04-07T21:16:36;988.8;;;23.5;43.1
76046;BME280;64741;41.730;44.788;2023-04-07T21:21:36;988.8;;;23.5;43.1
76046;BME280;64741;41.730;44.788;2023-04-07T21:26:42;988.8;;;23.5;43.1
76046;BME280;64741;41.730;44.788;2023-04-07T21:31:38;988.8;;;23.5;43.1
76046;BME280;64741;41.730;44.788;2023-04-07T21:36:38;988.8;;;23.5;43.1
76046;BME280;64741;41.730;44.788;2023-04-07T21:41:18;988.8;;;23.5;43.1
76046;BME280;64741;41.730;44.788;2023-04-07T21:46:44;988.8;;;23.5;43
76046;BME280;64741;41.730;44.788;2023-04-07T21:51:36;988.7;;;23.5;43
76046;BME280;64741;41.730;44.788;2023-04-07T21:56:44;988.7;;;23.5;43
76046;BME280;64741;41.730;44.788;2023-04-07T22:01:24;988.5;;;23.5;43
76046;BME280;64741;41.730;44.788;2023-04-07T22:06:38;988.4;;;23.4;43
76046;BME280;64741;41.730;44.788;2023-04-07T22:11:44;988.5;;;23.4;43
76046;BME280;64741;41.730;44.788;2023-04-07T22:16:36;988.5;;;23.4;43
76046;BME280;64741;41.730;44.788;2023-04-07T22:21:44;988.6;;;23.4;43
76046;BME280;64741;41.730;44.788;2023-04-07T22:26:38;988.5;;;23.4;43
76046;BME280;64741;41.730;44.788;2023-04-07T22:31:38;988.5;;;23.4;43
76046;BME280;64741;41.730;44.788;2023-04-07T22:36:44;988.4;;;23.4;43
76046;BME280;64741;41.730;44.788;2023-04-07T22:41:36;988.2;;;23.4;43
76046;BME280;64741;41.730;44.788;2023-04-07T22:46:42;988.2;;;23.5;43.2
76046;BME280;64741;41.730;44.788;2023-04-07T22:51:38;988.2;;;23.5;43.2
76046;BME280;64741;41.730;44.788;2023-04-07T22:56:38;988.1;;;23.5;43.1
76046;BME280;64741;41.730;44.788;2023-04-07T23:01:44;988.1;;;23.5;43
76046;BME280;64741;41.730;44.788;2023-04-07T23:06:36;988.1;;;23.5;43.1
76046;BME280;64741;41.730;44.788;2023-04-07T23:11:44;988.1;;;23.5;43.1
76046;BME280;64741;41.730;44.788;2023-04-07T23:16:38;988.2;;;23.5;43.1
76046;BME280;64741;41.730;44.788;2023-04-07T23:21:36;988.1;;;23.5;43.1
76046;BME280;64741;41.730;44.788;2023-04-07T23:26:42;988.1;;;23.5;43.1
76046;BME280;64741;41.730;44.788;2023-04-07T23:31:36;988;;;23.5;43.2
76046;BME280;64741;41.730;44.788;2023-04-07T23:36:44;988;;;23.5;43.1
76046;BME280;64741;41.730;44.788;2023-04-07T23:41:36;988;;;23.5;43.1
76046;BME280;64741;41.730;44.788;2023-04-07T23:46:38;988;;;23.5;43.1
76046;BME280;64741;41.730;44.788;2023-04-07T23:51:42;987.9;;;23.5;43.1
76046;BME280;64741;41.730;44.788;2023-04-07T23:56:36;987.9;;;23.5;43.1
